sensor_id;sensor_type;location;lat;lon;timestamp;pressure;altitude;pressure_sealevel;temperature;humidity
71107;BME280;58763;47.982;11.516;2023-01-29T00:01:49;94937.25;;;0.12;78.51
71107;BME280;58763;47.982;11.516;2023-01-29T00:04:15;94934.97;;;0.09;78.80
71107;BME280;58763;47.982;11.516;2023-01-29T00:06:41;94941.13;;;0.16;78.38
71107;BME280;58763;47.982;11.516;2023-01-29T00:09:07;94942.75;;;0.17;78.46
71107;BME280;58763;47.982;11.516;2023-01-29T00:11:34;94940.50;;;0.14;78.66
71107;BME280;58763;47.982;11.516;2023-01-29T00:13:59;94932.09;;;0.10;78.22
71107;BME280;58763;47.982;11.516;2023-01-29T00:16:25;94929.66;;;0.15;78.09
71107;BME280;58763;47.982;11.516;2023-01-29T00:18:51;94930.28;;;0.11;78.27
71107;BME280;58763;47.982;11.516;2023-01-29T00:21:19;94923.91;;;-0.02;78.52
71107;BME280;58763;47.982;11.516;2023-01-29T00:23:46;94924.31;;;-0.11;78.74
71107;BME280;58763;47.982;11.516;2023-01-29T00:26:12;94916.13;;;-0.16;79.08
71107;BME280;58763;47.982;11.516;2023-01-29T00:28:38;94917.78;;;-0.15;79.54
71107;BME280;58763;47.982;11.516;2023-01-29T00:31:11;94920.81;;;-0.12;79.54
71107;BME280;58763;47.982;11.516;2023-01-29T00:33:38;94932.72;;;-0.01;78.99
71107;BME280;58763;47.982;11.516;2023-01-29T00:36:05;94929.22;;;0.05;78.70
71107;BME280;58763;47.982;11.516;2023-01-29T00:38:32;94930.66;;;0.01;78.84
71107;BME280;58763;47.982;11.516;2023-01-29T00:41:07;94938.66;;;0.01;79.21
71107;BME280;58763;47.982;11.516;2023-01-29T00:43:52;94941.53;;;0.06;79.13
71107;BME280;58763;47.982;11.516;2023-01-29T00:46:36;94943.75;;;0.03;78.73
71107;BME280;58763;47.982;11.516;2023-01-29T00:49:03;94943.75;;;0.03;79.01
71107;BME280;58763;47.982;11.516;2023-01-29T00:51:29;94940.47;;;0.00;79.24
71107;BME280;58763;47.982;11.516;2023-01-29T00:53:55;94946.41;;;0.03;78.97
71107;BME280;58763;47.982;11.516;2023-01-29T00:56:24;94940.69;;;0.06;78.94
71107;BME280;58763;47.982;11.516;2023-01-29T00:58:50;94936.81;;;0.08;78.86
71107;BME280;58763;47.982;11.516;2023-01-29T01:01:15;94943.78;;;0.09;78.79
71107;BME280;58763;47.982;11.516;2023-01-29T01:03:41;94938.25;;;-0.03;78.91
71107;BME280;58763;47.982;11.516;2023-01-29T01:06:09;94936.59;;;-0.04;79.17
71107;BME280;58763;47.982;11.516;2023-01-29T01:08:35;94952.56;;;0.10;78.78
71107;BME280;58763;47.982;11.516;2023-01-29T01:11:21;94956.66;;;0.12;78.85
71107;BME280;58763;47.982;11.516;2023-01-29T01:13:46;94942.97;;;0.09;79.03
71107;BME280;58763;47.982;11.516;2023-01-29T01:16:14;94944.56;;;0.03;78.98
71107;BME280;58763;47.982;11.516;2023-01-29T01:18:40;94944.56;;;0.03;79.04
71107;BME280;58763;47.982;11.516;2023-01-29T01:21:06;94939.25;;;0.03;78.86
71107;BME280;58763;47.982;11.516;2023-01-29T01:23:32;94946.00;;;0.12;79.01
71107;BME280;58763;47.982;11.516;2023-01-29T01:25:57;94945.22;;;0.12;79.04
71107;BME280;58763;47.982;11.516;2023-01-29T01:28:24;94944.19;;;0.13;79.03
71107;BME280;58763;47.982;11.516;2023-01-29T01:30:49;94956.88;;;0.11;79.11
71107;BME280;58763;47.982;11.516;2023-01-29T01:33:15;94962.78;;;0.13;79.24
71107;BME280;58763;47.982;11.516;2023-01-29T01:35:42;94955.66;;;0.07;78.99
71107;BME280;58763;47.982;11.516;2023-01-29T01:38:08;94953.38;;;0.10;79.57
71107;BME280;58763;47.982;11.516;2023-01-29T01:40:35;94953.00;;;0.20;79.35
71107;BME280;58763;47.982;11.516;2023-01-29T01:43:00;94953.41;;;0.23;78.60
71107;BME280;58763;47.982;11.516;2023-01-29T01:48:19;94957.91;;;0.23;78.54
71107;BME280;58763;47.982;11.516;2023-01-29T01:50:57;94954.22;;;0.17;78.92
71107;BME280;58763;47.982;11.516;2023-01-29T01:53:28;94957.47;;;0.13;78.95
71107;BME280;58763;47.982;11.516;2023-01-29T01:56:01;94955.44;;;0.08;79.22
71107;BME280;58763;47.982;11.516;2023-01-29T01:58:34;94961.19;;;0.18;79.33
71107;BME280;58763;47.982;11.516;2023-01-29T02:01:03;94951.38;;;0.25;78.89
71107;BME280;58763;47.982;11.516;2023-01-29T02:03:32;94949.50;;;0.13;79.40
71107;BME280;58763;47.982;11.516;2023-01-29T02:06:18;94949.28;;;0.14;79.31
71107;BME280;58763;47.982;11.516;2023-01-29T02:09:06;94954.59;;;0.14;79.08
71107;BME280;58763;47.982;11.516;2023-01-29T02:11:51;94954.19;;;0.04;79.78
71107;BME280;58763;47.982;11.516;2023-01-29T02:14:16;94952.16;;;0.06;79.46
71107;BME280;58763;47.982;11.516;2023-01-29T02:16:42;94964.66;;;0.19;79.45
71107;BME280;58763;47.982;11.516;2023-01-29T02:19:35;94963.00;;;0.11;79.17
71107;BME280;58763;47.982;11.516;2023-01-29T02:25:14;94973.59;;;-0.02;79.60
71107;BME280;58763;47.982;11.516;2023-01-29T02:39:15;94965.22;;;-0.12;80.32
71107;BME280;58763;47.982;11.516;2023-01-29T02:41:51;94960.50;;;-0.10;79.93
71107;BME280;58763;47.982;11.516;2023-01-29T02:44:26;94963.34;;;-0.12;79.75
71107;BME280;58763;47.982;11.516;2023-01-29T02:49:51;94954.53;;;-0.25;80.05
71107;BME280;58763;47.982;11.516;2023-01-29T02:52:25;94955.16;;;-0.23;80.25
71107;BME280;58763;47.982;11.516;2023-01-29T02:54:56;94953.31;;;-0.29;80.48
71107;BME280;58763;47.982;11.516;2023-01-29T02:57:31;94947.78;;;-0.34;80.59
71107;BME280;58763;47.982;11.516;2023-01-29T03:02:34;94949.22;;;-0.32;80.81
71107;BME280;58763;47.982;11.516;2023-01-29T03:05:07;94955.13;;;-0.30;80.56
71107;BME280;58763;47.982;11.516;2023-01-29T03:07:41;94954.97;;;-0.15;80.57
71107;BME280;58763;47.982;11.516;2023-01-29T03:10:28;94946.19;;;-0.16;80.51
71107;BME280;58763;47.982;11.516;2023-01-29T03:13:13;94944.72;;;-0.25;80.47
71107;BME280;58763;47.982;11.516;2023-01-29T03:15:43;94948.00;;;-0.29;80.78
71107;BME280;58763;47.982;11.516;2023-01-29T03:18:17;94945.94;;;-0.27;80.47
71107;BME280;58763;47.982;11.516;2023-01-29T03:20:53;94941.03;;;-0.30;80.86
71107;BME280;58763;47.982;11.516;2023-01-29T03:23:33;94942.22;;;-0.39;81.21
71107;BME280;58763;47.982;11.516;2023-01-29T03:26:20;94943.50;;;-0.35;80.86
71107;BME280;58763;47.982;11.516;2023-01-29T03:29:06;94944.09;;;-0.40;80.97
71107;BME280;58763;47.982;11.516;2023-01-29T03:31:54;94932.41;;;-0.45;80.78
71107;BME280;58763;47.982;11.516;2023-01-29T03:34:39;94928.34;;;-0.41;81.15
71107;BME280;58763;47.982;11.516;2023-01-29T03:37:10;94936.28;;;-0.54;80.71
71107;BME280;58763;47.982;11.516;2023-01-29T03:39:40;94940.16;;;-0.50;81.44
71107;BME280;58763;47.982;11.516;2023-01-29T03:47:23;94947.19;;;-0.23;81.02
71107;BME280;58763;47.982;11.516;2023-01-29T03:52:50;94943.06;;;-0.32;81.07
71107;BME280;58763;47.982;11.516;2023-01-29T03:55:26;94946.75;;;-0.33;81.10
71107;BME280;58763;47.982;11.516;2023-01-29T03:57:58;94945.50;;;-0.44;81.05
71107;BME280;58763;47.982;11.516;2023-01-29T04:00:37;94935.28;;;-0.40;81.58
71107;BME280;58763;47.982;11.516;2023-01-29T04:06:28;94928.78;;;-0.18;80.71
71107;BME280;58763;47.982;11.516;2023-01-29T04:08:58;94926.97;;;-0.11;80.32
71107;BME280;58763;47.982;11.516;2023-01-29T04:11:27;94929.66;;;0.02;79.21
71107;BME280;58763;47.982;11.516;2023-01-29T04:13:55;94919.41;;;-0.14;79.87
71107;BME280;58763;47.982;11.516;2023-01-29T04:16:33;94914.28;;;-0.22;80.47
71107;BME280;58763;47.982;11.516;2023-01-29T04:19:00;94899.97;;;-0.21;80.20
71107;BME280;58763;47.982;11.516;2023-01-29T04:21:26;94895.69;;;-0.16;80.38
71107;BME280;58763;47.982;11.516;2023-01-29T04:23:52;94899.38;;;-0.17;79.72
71107;BME280;58763;47.982;11.516;2023-01-29T04:29:47;94895.91;;;-0.17;79.97
71107;BME280;58763;47.982;11.516;2023-01-29T04:43:26;94903.88;;;-0.17;79.67
71107;BME280;58763;47.982;11.516;2023-01-29T04:46:15;94898.53;;;-0.24;80.45
71107;BME280;58763;47.982;11.516;2023-01-29T04:49:16;94894.84;;;-0.16;80.08
71107;BME280;58763;47.982;11.516;2023-01-29T04:52:11;94901.00;;;-0.16;80.10
71107;BME280;58763;47.982;11.516;2023-01-29T04:54:55;94905.47;;;-0.16;79.81
71107;BME280;58763;47.982;11.516;2023-01-29T05:00:17;94920.22;;;-0.20;80.15
71107;BME280;58763;47.982;11.516;2023-01-29T05:02:45;94915.72;;;-0.20;80.30
71107;BME280;58763;47.982;11.516;2023-01-29T05:05:12;94903.03;;;-0.18;80.11
71107;BME280;58763;47.982;11.516;2023-01-29T05:07:40;94902.22;;;-0.18;80.21
71107;BME280;58763;47.982;11.516;2023-01-29T05:10:08;94897.94;;;-0.19;80.03
71107;BME280;58763;47.982;11.516;2023-01-29T05:12:36;94910.00;;;-0.10;79.68
71107;BME280;58763;47.982;11.516;2023-01-29T05:15:11;94908.97;;;-0.09;79.67
71107;BME280;58763;47.982;11.516;2023-01-29T05:17:38;94913.47;;;-0.16;79.99
71107;BME280;58763;47.982;11.516;2023-01-29T05:20:04;94910.81;;;-0.16;80.13
71107;BME280;58763;47.982;11.516;2023-01-29T05:22:30;94913.28;;;-0.08;79.75
71107;BME280;58763;47.982;11.516;2023-01-29T05:24:56;94920.66;;;-0.10;79.78
71107;BME280;58763;47.982;11.516;2023-01-29T05:27:29;94922.09;;;-0.08;79.54
71107;BME280;58763;47.982;11.516;2023-01-29T05:30:14;94924.91;;;-0.09;79.33
71107;BME280;58763;47.982;11.516;2023-01-29T05:32:40;94933.31;;;-0.12;79.88
71107;BME280;58763;47.982;11.516;2023-01-29T05:35:06;94932.72;;;-0.14;80.00
71107;BME280;58763;47.982;11.516;2023-01-29T05:37:31;94938.22;;;-0.09;79.97
71107;BME280;58763;47.982;11.516;2023-01-29T05:39:57;94937.00;;;-0.13;80.17
71107;BME280;58763;47.982;11.516;2023-01-29T05:42:22;94933.94;;;-0.10;79.67
71107;BME280;58763;47.982;11.516;2023-01-29T05:44:48;94955.16;;;-0.23;79.65
71107;BME280;58763;47.982;11.516;2023-01-29T05:47:18;94953.53;;;-0.24;79.95
71107;BME280;58763;47.982;11.516;2023-01-29T05:49:43;94960.44;;;-0.43;80.19
71107;BME280;58763;47.982;11.516;2023-01-29T05:52:10;94965.13;;;-0.38;80.28
71107;BME280;58763;47.982;11.516;2023-01-29T05:54:35;94964.66;;;-0.55;80.09
71107;BME280;58763;47.982;11.516;2023-01-29T05:57:01;94970.44;;;-0.45;80.97
71107;BME280;58763;47.982;11.516;2023-01-29T05:59:26;94961.88;;;-0.34;80.48
71107;BME280;58763;47.982;11.516;2023-01-29T06:01:52;94959.63;;;-0.30;80.09
71107;BME280;58763;47.982;11.516;2023-01-29T06:04:17;94963.13;;;-0.23;80.13
71107;BME280;58763;47.982;11.516;2023-01-29T06:06:43;94963.13;;;-0.23;79.76
71107;BME280;58763;47.982;11.516;2023-01-29T06:09:10;94957.00;;;-0.24;80.12
71107;BME280;58763;47.982;11.516;2023-01-29T06:11:36;94948.00;;;-0.23;80.08
71107;BME280;58763;47.982;11.516;2023-01-29T06:14:01;94958.66;;;-0.16;79.81
71107;BME280;58763;47.982;11.516;2023-01-29T06:16:27;94960.28;;;-0.15;80.14
71107;BME280;58763;47.982;11.516;2023-01-29T06:18:52;94968.06;;;-0.14;79.77
71107;BME280;58763;47.982;11.516;2023-01-29T06:21:18;94953.16;;;-0.02;79.54
71107;BME280;58763;47.982;11.516;2023-01-29T06:23:43;94964.00;;;-0.03;79.29
71107;BME280;58763;47.982;11.516;2023-01-29T06:26:12;94945.19;;;-0.08;79.06
71107;BME280;58763;47.982;11.516;2023-01-29T06:28:38;94957.03;;;-0.11;79.17
71107;BME280;58763;47.982;11.516;2023-01-29T06:31:04;94968.06;;;-0.14;79.20
71107;BME280;58763;47.982;11.516;2023-01-29T06:33:30;94959.47;;;-0.09;79.14
71107;BME280;58763;47.982;11.516;2023-01-29T06:36:01;94962.34;;;-0.11;78.93
71107;BME280;58763;47.982;11.516;2023-01-29T06:38:28;94966.84;;;-0.05;78.76
71107;BME280;58763;47.982;11.516;2023-01-29T06:40:54;94962.97;;;-0.02;78.38
71107;BME280;58763;47.982;11.516;2023-01-29T06:43:20;94962.13;;;-0.09;79.00
71107;BME280;58763;47.982;11.516;2023-01-29T06:45:56;94968.50;;;-0.10;78.21
71107;BME280;58763;47.982;11.516;2023-01-29T06:48:23;94971.31;;;-0.12;78.28
71107;BME280;58763;47.982;11.516;2023-01-29T06:50:49;94973.41;;;-0.01;77.93
71107;BME280;58763;47.982;11.516;2023-01-29T06:53:15;94978.28;;;-0.11;78.21
71107;BME280;58763;47.982;11.516;2023-01-29T06:55:41;94973.97;;;-0.18;77.35
71107;BME280;58763;47.982;11.516;2023-01-29T06:58:10;94972.97;;;-0.24;77.26
71107;BME280;58763;47.982;11.516;2023-01-29T07:00:36;94965.97;;;-0.31;76.49
71107;BME280;58763;47.982;11.516;2023-01-29T07:03:03;94970.91;;;-0.28;76.19
71107;BME280;58763;47.982;11.516;2023-01-29T07:05:29;94976.41;;;-0.23;75.58
71107;BME280;58763;47.982;11.516;2023-01-29T07:07:55;94965.16;;;-0.25;75.65
71107;BME280;58763;47.982;11.516;2023-01-29T07:10:21;94961.09;;;-0.21;75.53
71107;BME280;58763;47.982;11.516;2023-01-29T07:12:47;94956.63;;;-0.08;75.24
71107;BME280;58763;47.982;11.516;2023-01-29T07:15:12;94956.41;;;-0.13;74.79
71107;BME280;58763;47.982;11.516;2023-01-29T07:17:38;94956.03;;;-0.10;74.51
71107;BME280;58763;47.982;11.516;2023-01-29T07:20:04;94971.75;;;-0.08;74.88
71107;BME280;58763;47.982;11.516;2023-01-29T07:22:31;94966.22;;;-0.07;74.92
71107;BME280;58763;47.982;11.516;2023-01-29T07:24:57;94965.84;;;-0.10;74.86
71107;BME280;58763;47.982;11.516;2023-01-29T07:27:22;94968.06;;;-0.14;75.15
71107;BME280;58763;47.982;11.516;2023-01-29T07:29:48;94956.22;;;-0.11;75.44
71107;BME280;58763;47.982;11.516;2023-01-29T07:32:14;94950.50;;;0.05;75.02
71107;BME280;58763;47.982;11.516;2023-01-29T07:34:40;94950.09;;;0.02;74.00
71107;BME280;58763;47.982;11.516;2023-01-29T07:37:05;94937.44;;;0.04;74.11
71107;BME280;58763;47.982;11.516;2023-01-29T07:39:31;94937.63;;;0.02;74.31
71107;BME280;58763;47.982;11.516;2023-01-29T07:41:57;94940.91;;;0.04;74.05
71107;BME280;58763;47.982;11.516;2023-01-29T07:44:22;94944.19;;;-0.01;74.18
71107;BME280;58763;47.982;11.516;2023-01-29T07:46:48;94938.88;;;0.06;73.42
71107;BME280;58763;47.982;11.516;2023-01-29T07:49:14;94934.38;;;0.00;73.22
71107;BME280;58763;47.982;11.516;2023-01-29T07:51:40;94935.38;;;-0.08;72.90
71107;BME280;58763;47.982;11.516;2023-01-29T07:54:05;94942.72;;;-0.10;73.26
71107;BME280;58763;47.982;11.516;2023-01-29T07:56:31;94932.09;;;-0.03;73.04
71107;BME280;58763;47.982;11.516;2023-01-29T07:58:56;94935.16;;;-0.06;73.36
71107;BME280;58763;47.982;11.516;2023-01-29T08:01:22;94928.84;;;-0.05;73.51
71107;BME280;58763;47.982;11.516;2023-01-29T08:03:47;94925.75;;;-0.02;73.82
71107;BME280;58763;47.982;11.516;2023-01-29T08:06:13;94920.88;;;-0.05;72.05
71107;BME280;58763;47.982;11.516;2023-01-29T08:08:38;94925.13;;;-0.11;71.48
71107;BME280;58763;47.982;11.516;2023-01-29T08:11:04;94929.44;;;-0.10;71.12
71107;BME280;58763;47.982;11.516;2023-01-29T08:13:30;94932.50;;;-0.13;71.54
71107;BME280;58763;47.982;11.516;2023-01-29T08:16:01;94932.72;;;-0.08;71.30
71107;BME280;58763;47.982;11.516;2023-01-29T08:18:28;94934.16;;;-0.05;71.65
71107;BME280;58763;47.982;11.516;2023-01-29T08:21:01;94933.13;;;0.03;71.22
71107;BME280;58763;47.982;11.516;2023-01-29T08:23:27;94933.94;;;0.03;71.17
71107;BME280;58763;47.982;11.516;2023-01-29T08:25:53;94920.44;;;-0.09;71.06
71107;BME280;58763;47.982;11.516;2023-01-29T08:28:18;94925.34;;;0.01;70.26
71107;BME280;58763;47.982;11.516;2023-01-29T08:30:44;94930.88;;;0.06;69.76
71107;BME280;58763;47.982;11.516;2023-01-29T08:33:10;94931.72;;;0.13;69.71
71107;BME280;58763;47.982;11.516;2023-01-29T08:35:49;94922.28;;;0.17;74.42
71107;BME280;58763;47.982;11.516;2023-01-29T08:38:15;94930.09;;;0.25;71.40
71107;BME280;58763;47.982;11.516;2023-01-29T08:40:42;94924.56;;;0.33;69.96
71107;BME280;58763;47.982;11.516;2023-01-29T08:43:10;94919.44;;;0.38;70.48
71107;BME280;58763;47.982;11.516;2023-01-29T08:45:39;94935.59;;;0.43;70.44
71107;BME280;58763;47.982;11.516;2023-01-29T08:48:05;94940.53;;;0.53;70.40
71107;BME280;58763;47.982;11.516;2023-01-29T08:50:32;94945.22;;;0.64;69.37
71107;BME280;58763;47.982;11.516;2023-01-29T08:53:02;94951.13;;;0.73;69.45
71107;BME280;58763;47.982;11.516;2023-01-29T08:55:28;94947.03;;;0.90;68.16
71107;BME280;58763;47.982;11.516;2023-01-29T08:57:54;94955.16;;;1.08;68.01
71107;BME280;58763;47.982;11.516;2023-01-29T09:00:21;94959.88;;;1.19;66.82
71107;BME280;58763;47.982;11.516;2023-01-29T09:02:47;94956.63;;;1.04;65.48
71107;BME280;58763;47.982;11.516;2023-01-29T09:05:12;94965.06;;;0.61;65.71
71107;BME280;58763;47.982;11.516;2023-01-29T09:07:40;94960.97;;;0.00;66.93
71107;BME280;58763;47.982;11.516;2023-01-29T09:10:07;94969.28;;;-0.16;68.39
71107;BME280;58763;47.982;11.516;2023-01-29T09:12:33;94967.56;;;-0.43;68.86
71107;BME280;58763;47.982;11.516;2023-01-29T09:15:00;94968.13;;;-0.61;69.51
71107;BME280;58763;47.982;11.516;2023-01-29T09:17:25;94974.91;;;-0.52;70.50
71107;BME280;58763;47.982;11.516;2023-01-29T09:19:51;94982.03;;;-0.52;70.40
71107;BME280;58763;47.982;11.516;2023-01-29T09:22:18;94980.63;;;-0.42;70.37
71107;BME280;58763;47.982;11.516;2023-01-29T09:24:43;94979.72;;;-0.15;70.31
71107;BME280;58763;47.982;11.516;2023-01-29T09:27:09;94985.59;;;-0.32;68.92
71107;BME280;58763;47.982;11.516;2023-01-29T09:29:35;94996.31;;;-0.06;69.21
71107;BME280;58763;47.982;11.516;2023-01-29T09:32:00;94994.91;;;0.11;68.51
71107;BME280;58763;47.982;11.516;2023-01-29T09:34:26;94998.41;;;0.31;69.33
71107;BME280;58763;47.982;11.516;2023-01-29T09:36:51;94997.81;;;0.42;68.61
71107;BME280;58763;47.982;11.516;2023-01-29T09:39:18;95002.47;;;0.01;68.95
71107;BME280;58763;47.982;11.516;2023-01-29T09:42:13;95001.44;;;0.02;69.43
71107;BME280;58763;47.982;11.516;2023-01-29T09:47:19;95002.13;;;0.37;69.33
71107;BME280;58763;47.982;11.516;2023-01-29T09:49:58;95007.00;;;0.40;68.48
71107;BME280;58763;47.982;11.516;2023-01-29T09:52:29;95012.97;;;0.48;68.56
71107;BME280;58763;47.982;11.516;2023-01-29T09:55:06;95016.03;;;0.45;68.58
71107;BME280;58763;47.982;11.516;2023-01-29T10:00:03;95021.78;;;0.82;68.81
71107;BME280;58763;47.982;11.516;2023-01-29T10:03:06;95021.97;;;0.87;68.79
71107;BME280;58763;47.982;11.516;2023-01-29T10:08:45;95009.31;;;0.62;67.71
71107;BME280;58763;47.982;11.516;2023-01-29T10:16:37;95009.50;;;0.67;69.05
71107;BME280;58763;47.982;11.516;2023-01-29T10:22:33;95006.22;;;0.65;67.85
71107;BME280;58763;47.982;11.516;2023-01-29T10:25:04;95010.53;;;0.53;67.31
71107;BME280;58763;47.982;11.516;2023-01-29T10:27:35;95013.78;;;0.68;67.80
71107;BME280;58763;47.982;11.516;2023-01-29T10:30:07;95005.81;;;0.95;67.29
71107;BME280;58763;47.982;11.516;2023-01-29T10:32:36;94999.25;;;0.97;70.26
71107;BME280;58763;47.982;11.516;2023-01-29T10:35:05;94996.78;;;1.09;68.84
71107;BME280;58763;47.982;11.516;2023-01-29T10:37:41;94994.72;;;1.11;68.90
71107;BME280;58763;47.982;11.516;2023-01-29T10:40:18;94998.38;;;1.10;67.57
71107;BME280;58763;47.982;11.516;2023-01-29T10:43:12;94995.31;;;1.13;67.30
71107;BME280;58763;47.982;11.516;2023-01-29T10:45:47;94994.28;;;1.20;66.39
71107;BME280;58763;47.982;11.516;2023-01-29T10:48:48;94987.34;;;1.06;66.06
71107;BME280;58763;47.982;11.516;2023-01-29T10:59:29;94991.66;;;1.07;67.34
71107;BME280;58763;47.982;11.516;2023-01-29T11:02:00;94994.09;;;1.09;67.70
71107;BME280;58763;47.982;11.516;2023-01-29T11:04:29;94991.22;;;1.10;67.92
71107;BME280;58763;47.982;11.516;2023-01-29T11:06:56;94992.28;;;1.09;66.66
71107;BME280;58763;47.982;11.516;2023-01-29T11:09:29;94992.25;;;1.03;67.74
71107;BME280;58763;47.982;11.516;2023-01-29T11:12:02;94978.94;;;1.03;68.51
71107;BME280;58763;47.982;11.516;2023-01-29T11:17:03;94983.44;;;1.09;68.62
71107;BME280;58763;47.982;11.516;2023-01-29T11:19:43;94983.25;;;1.04;67.26
71107;BME280;58763;47.982;11.516;2023-01-29T11:22:15;94978.13;;;1.09;67.38
71107;BME280;58763;47.982;11.516;2023-01-29T11:24:42;94973.44;;;1.04;67.70
71107;BME280;58763;47.982;11.516;2023-01-29T11:27:22;94978.16;;;1.02;67.60
71107;BME280;58763;47.982;11.516;2023-01-29T11:29:51;94975.03;;;1.05;67.63
71107;BME280;58763;47.982;11.516;2023-01-29T11:37:42;94970.53;;;1.06;68.80
71107;BME280;58763;47.982;11.516;2023-01-29T11:40:33;94957.03;;;1.01;68.41
71107;BME280;58763;47.982;11.516;2023-01-29T11:45:44;94960.97;;;0.85;69.17
71107;BME280;58763;47.982;11.516;2023-01-29T11:48:14;94960.53;;;0.95;68.90
71107;BME280;58763;47.982;11.516;2023-01-29T11:50:41;94957.22;;;1.06;68.42
71107;BME280;58763;47.982;11.516;2023-01-29T11:53:22;94956.63;;;1.04;68.52
71107;BME280;58763;47.982;11.516;2023-01-29T11:55:49;94956.41;;;1.12;68.32
71107;BME280;58763;47.982;11.516;2023-01-29T11:58:22;94953.09;;;1.23;67.87
71107;BME280;58763;47.982;11.516;2023-01-29T12:00:51;94937.56;;;1.13;68.16
71107;BME280;58763;47.982;11.516;2023-01-29T12:03:32;94913.09;;;1.29;67.17
71107;BME280;58763;47.982;11.516;2023-01-29T12:08:32;94902.06;;;1.26;66.87
71107;BME280;58763;47.982;11.516;2023-01-29T12:11:23;94896.13;;;1.24;67.68
71107;BME280;58763;47.982;11.516;2023-01-29T12:13:57;94890.25;;;1.09;67.67
71107;BME280;58763;47.982;11.516;2023-01-29T12:16:30;94874.88;;;1.11;68.00
71107;BME280;58763;47.982;11.516;2023-01-29T12:21:59;94866.31;;;0.96;68.40
71107;BME280;58763;47.982;11.516;2023-01-29T12:24:51;94865.13;;;0.85;68.76
71107;BME280;58763;47.982;11.516;2023-01-29T12:29:56;94860.56;;;0.99;67.67
71107;BME280;58763;47.982;11.516;2023-01-29T12:34:55;94864.91;;;0.87;68.40
71107;BME280;58763;47.982;11.516;2023-01-29T12:37:37;94864.72;;;0.82;67.61
71107;BME280;58763;47.982;11.516;2023-01-29T12:40:13;94871.25;;;0.92;68.11
71107;BME280;58763;47.982;11.516;2023-01-29T12:42:42;94877.84;;;0.77;68.09
71107;BME280;58763;47.982;11.516;2023-01-29T12:45:16;94881.72;;;0.81;69.05
71107;BME280;58763;47.982;11.516;2023-01-29T12:47:55;94875.75;;;0.92;69.17
71107;BME280;58763;47.982;11.516;2023-01-29T12:50:35;94866.50;;;1.01;69.06
71107;BME280;58763;47.982;11.516;2023-01-29T12:53:25;94865.63;;;1.13;69.78
71107;BME280;58763;47.982;11.516;2023-01-29T12:55:58;94864.53;;;1.34;68.75
71107;BME280;58763;47.982;11.516;2023-01-29T12:58:29;94856.78;;;1.26;67.32
71107;BME280;58763;47.982;11.516;2023-01-29T13:01:02;94844.44;;;1.31;66.86
71107;BME280;58763;47.982;11.516;2023-01-29T13:03:51;94836.88;;;1.28;66.10
71107;BME280;58763;47.982;11.516;2023-01-29T13:06:27;94841.41;;;1.21;66.36
71107;BME280;58763;47.982;11.516;2023-01-29T13:08:58;94828.03;;;1.34;66.41
71107;BME280;58763;47.982;11.516;2023-01-29T13:16:49;94828.72;;;1.17;67.06
71107;BME280;58763;47.982;11.516;2023-01-29T13:19:23;94822.97;;;1.20;67.46
71107;BME280;58763;47.982;11.516;2023-01-29T13:21:53;94810.03;;;1.30;67.20
71107;BME280;58763;47.982;11.516;2023-01-29T13:24:22;94812.28;;;1.33;67.14
71107;BME280;58763;47.982;11.516;2023-01-29T13:26:48;94808.53;;;1.40;67.27
71107;BME280;58763;47.982;11.516;2023-01-29T13:29:25;94805.31;;;1.63;66.73
71107;BME280;58763;47.982;11.516;2023-01-29T13:31:53;94805.97;;;1.59;66.46
71107;BME280;58763;47.982;11.516;2023-01-29T13:36:55;94804.28;;;1.64;66.25
71107;BME280;58763;47.982;11.516;2023-01-29T13:39:39;94802.16;;;1.73;66.32
71107;BME280;58763;47.982;11.516;2023-01-29T13:42:20;94795.91;;;1.85;65.83
71107;BME280;58763;47.982;11.516;2023-01-29T13:44:51;94790.53;;;1.67;66.46
71107;BME280;58763;47.982;11.516;2023-01-29T13:47:26;94780.03;;;1.72;66.06
71107;BME280;58763;47.982;11.516;2023-01-29T13:52:56;94775.25;;;1.56;65.41
71107;BME280;58763;47.982;11.516;2023-01-29T13:55:35;94769.91;;;1.56;65.30
71107;BME280;58763;47.982;11.516;2023-01-29T13:58:05;94775.19;;;1.63;65.69
71107;BME280;58763;47.982;11.516;2023-01-29T14:10:38;94781.03;;;1.47;67.81
71107;BME280;58763;47.982;11.516;2023-01-29T14:18:27;94763.91;;;1.29;67.97
71107;BME280;58763;47.982;11.516;2023-01-29T14:23:34;94762.47;;;0.96;68.58
71107;BME280;58763;47.982;11.516;2023-01-29T14:26:03;94757.44;;;1.19;68.23
71107;BME280;58763;47.982;11.516;2023-01-29T14:28:32;94751.94;;;1.14;68.58
71107;BME280;58763;47.982;11.516;2023-01-29T14:30:58;94748.09;;;1.03;68.96
71107;BME280;58763;47.982;11.516;2023-01-29T14:33:30;94759.75;;;1.09;68.79
71107;BME280;58763;47.982;11.516;2023-01-29T14:35:58;94748.81;;;1.17;69.21
71107;BME280;58763;47.982;11.516;2023-01-29T14:38:28;94747.47;;;1.39;68.91
71107;BME280;58763;47.982;11.516;2023-01-29T14:43:38;94749.44;;;1.19;69.02
71107;BME280;58763;47.982;11.516;2023-01-29T14:49:00;94769.66;;;1.26;68.78
71107;BME280;58763;47.982;11.516;2023-01-29T14:51:33;94778.09;;;1.23;68.61
71107;BME280;58763;47.982;11.516;2023-01-29T14:54:13;94776.88;;;1.26;68.38
71107;BME280;58763;47.982;11.516;2023-01-29T14:59:24;94795.28;;;1.27;68.49
71107;BME280;58763;47.982;11.516;2023-01-29T15:02:00;94785.47;;;1.21;68.25
71107;BME280;58763;47.982;11.516;2023-01-29T15:04:36;94785.69;;;1.20;68.89
71107;BME280;58763;47.982;11.516;2023-01-29T15:07:14;94774.81;;;1.21;69.03
71107;BME280;58763;47.982;11.516;2023-01-29T15:09:53;94773.19;;;1.20;69.30
71107;BME280;58763;47.982;11.516;2023-01-29T15:15:14;94771.56;;;1.19;69.74
71107;BME280;58763;47.982;11.516;2023-01-29T15:18:02;94768.28;;;1.17;69.95
71107;BME280;58763;47.982;11.516;2023-01-29T15:20:32;94765.44;;;1.19;69.91
71107;BME280;58763;47.982;11.516;2023-01-29T15:22:59;94773.16;;;1.27;68.85
71107;BME280;58763;47.982;11.516;2023-01-29T15:25:26;94766.28;;;1.13;69.53
71107;BME280;58763;47.982;11.516;2023-01-29T15:27:55;94767.13;;;1.07;69.54
71107;BME280;58763;47.982;11.516;2023-01-29T15:30:32;94761.63;;;1.02;69.65
71107;BME280;58763;47.982;11.516;2023-01-29T15:32:58;94783.16;;;0.94;69.76